Hachinohemaru — JE3089 — position and weather

sailwx.info

Track history (hours):
 
Tides and Currents Weather Stations Pressure Air Temp Water Temp Dewpoint Dewpoint Depression Visibility Wind Speed Wind Dir Waves Ship Positions

Hachinohemaru

Last reported at 2016-May-28 20:33 UTC. Time now 2016-May-29 01:54 UTC.
Position N 35°57' E 140°42'.

Length 168 m; draft 9.3 m.

Type: Cargo ship. MMSI: 431700018.

Date/timePositionNaut miles runAvg speedWind from/ knotsBaromVisibWave heightAir tempDewpointWater temp
2016-May-28 20:33N 35°57' E 140°42'3 1.4
2016-May-28 18:10N 36°00' E 140°43'0 0.0
2016-May-28 17:31N 36°00' E 140°43'0 0.0
2016-May-28 16:31N 36°00' E 140°44'0 0.1
2016-May-28 15:31N 36°00' E 140°44'0 0.0
2016-May-28 13:31N 36°01' E 140°44'0 0.1
2016-May-28 12:31N 36°01' E 140°44'0 0.0
2016-May-28 11:31N 36°01' E 140°44'0 0.1
2016-May-28 10:25N 36°01' E 140°43'2 2.8
2016-May-28 09:34N 36°03' E 140°45'  
2016-May-25 21:14N 36°10' E 140°47'1114.5
2016-May-25 20:28N 35°59' E 140°43'4 0.4
2016-May-25 09:33N 35°55' E 140°41'14112.8
2016-May-24 22:31N 38°09' E 141°37'1213.0
2016-May-24 21:33N 38°21' E 141°41'77 1.5
2016-May-22 18:26N 37°08' E 141°13'1213.5
2016-May-22 17:33N 36°56' E 141°08'1313.6
2016-May-22 16:34N 36°44' E 141°02'1413.6
2016-May-22 15:33N 36°31' E 140°56'1413.5
2016-May-22 14:33N 36°18' E 140°52'1313.3
2016-May-22 13:33N 36°06' E 140°46'1110.9
2016-May-22 12:33N 35°56' E 140°41'0 0.1
2016-May-22 11:33N 35°56' E 140°41'0 0.0
2016-May-22 10:30N 35°56' E 140°41'0 0.0
2016-May-22 09:33N 35°56' E 140°41'0 0.0
2016-May-22 01:12N 35°55' E 140°41'4 6.8
2016-May-22 00:33N 35°59' E 140°45'1 0.2
2016-May-21 22:04N 35°59' E 140°46'0 0.1
2016-May-21 21:31N 35°59' E 140°46'0 0.1
2016-May-21 20:31N 35°59' E 140°46'0 0.0
2016-May-21 19:25N 35°59' E 140°46'0 0.0
2016-May-21 18:31N 35°59' E 140°46'0 0.0
2016-May-21 17:28N 35°59' E 140°46'0 0.0
2016-May-21 16:31N 35°59' E 140°46'0 0.0
2016-May-21 15:28N 35°59' E 140°46'0 0.0
2016-May-21 14:31N 35°59' E 140°46'0 0.0
2016-May-21 11:16N 35°59' E 140°46'0 0.1
2016-May-21 10:28N 35°59' E 140°46'0 0.0
2016-May-21 09:28N 35°59' E 140°46'0 0.0
2016-May-21 06:28N 35°59' E 140°46'0 0.0
2016-May-21 04:16N 35°59' E 140°46'0 0.0
2016-May-21 03:16N 35°59' E 140°46'0 0.0
2016-May-21 02:25N 35°59' E 140°46'0 0.0
2016-May-20 21:31N 35°59' E 140°46'0 0.0
2016-May-20 20:25N 35°59' E 140°46'0 0.0
2016-May-20 19:19N 35°59' E 140°46'0 0.1
2016-May-20 18:31N 35°59' E 140°46'0 0.0
2016-May-20 17:13N 35°59' E 140°46'0 0.0
2016-May-20 15:13N 35°59' E 140°46'0 0.0
2016-May-20 14:31N 35°59' E 140°46'0 0.0
2016-May-20 13:10N 35°59' E 140°46'0 0.0
2016-May-20 08:13N 35°59' E 140°46'0 0.0
2016-May-20 07:19N 35°59' E 140°46'0 0.0
2016-May-20 06:19N 35°59' E 140°46'1 0.8
2016-May-20 05:33N 35°58' E 140°46'3110.1
2016-May-20 02:26N 35°27' E 140°47'1712.9
2016-May-20 01:05N 35°12' E 140°37'914.0
2016-May-20 00:28N 35°05' E 140°30'1613.8
2016-May-19 23:20N 34°57' E 140°13'1013.0
2016-May-19 22:32N 34°51' E 140°03'1212.7
2016-May-19 21:33N 34°45' E 139°50'  
Track history (hours):
 
Tides and Currents Weather Stations Pressure Air Temp Water Temp Dewpoint Dewpoint Depression Visibility Wind Speed Wind Dir Waves Ship Positions

Hachinohemaru

Last reported at 2016-May-28 20:33 UTC. Time now 2016-May-29 01:54 UTC.
Position N 35°57' E 140°42'.

Length 168 m; draft 9.3 m.

Type: Cargo ship. MMSI: 431700018.

Date/timePositionNaut miles runAvg speedWind from/ knotsBaromVisibWave heightAir tempDewpointWater temp
2016-May-28 20:33N 35°57' E 140°42'3 1.4
2016-May-28 18:10N 36°00' E 140°43'0 0.0
2016-May-28 17:31N 36°00' E 140°43'0 0.0
2016-May-28 16:31N 36°00' E 140°44'0 0.1
2016-May-28 15:31N 36°00' E 140°44'0 0.0
2016-May-28 13:31N 36°01' E 140°44'0 0.1
2016-May-28 12:31N 36°01' E 140°44'0 0.0
2016-May-28 11:31N 36°01' E 140°44'0 0.1
2016-May-28 10:25N 36°01' E 140°43'2 2.8
2016-May-28 09:34N 36°03' E 140°45'  
2016-May-25 21:14N 36°10' E 140°47'1114.5
2016-May-25 20:28N 35°59' E 140°43'4 0.4
2016-May-25 09:33N 35°55' E 140°41'14112.8
2016-May-24 22:31N 38°09' E 141°37'1213.0
2016-May-24 21:33N 38°21' E 141°41'77 1.5
2016-May-22 18:26N 37°08' E 141°13'1213.5
2016-May-22 17:33N 36°56' E 141°08'1313.6
2016-May-22 16:34N 36°44' E 141°02'1413.6
2016-May-22 15:33N 36°31' E 140°56'1413.5
2016-May-22 14:33N 36°18' E 140°52'1313.3
2016-May-22 13:33N 36°06' E 140°46'1110.9
2016-May-22 12:33N 35°56' E 140°41'0 0.1
2016-May-22 11:33N 35°56' E 140°41'0 0.0
2016-May-22 10:30N 35°56' E 140°41'0 0.0
2016-May-22 09:33N 35°56' E 140°41'0 0.0
2016-May-22 01:12N 35°55' E 140°41'4 6.8
2016-May-22 00:33N 35°59' E 140°45'1 0.2
2016-May-21 22:04N 35°59' E 140°46'0 0.1
2016-May-21 21:31N 35°59' E 140°46'0 0.1
2016-May-21 20:31N 35°59' E 140°46'0 0.0
2016-May-21 19:25N 35°59' E 140°46'0 0.0
2016-May-21 18:31N 35°59' E 140°46'0 0.0
2016-May-21 17:28N 35°59' E 140°46'0 0.0
2016-May-21 16:31N 35°59' E 140°46'0 0.0
2016-May-21 15:28N 35°59' E 140°46'0 0.0
2016-May-21 14:31N 35°59' E 140°46'0 0.0
2016-May-21 11:16N 35°59' E 140°46'0 0.1
2016-May-21 10:28N 35°59' E 140°46'0 0.0
2016-May-21 09:28N 35°59' E 140°46'0 0.0
2016-May-21 06:28N 35°59' E 140°46'0 0.0
2016-May-21 04:16N 35°59' E 140°46'0 0.0
2016-May-21 03:16N 35°59' E 140°46'0 0.0
2016-May-21 02:25N 35°59' E 140°46'0 0.0
2016-May-20 21:31N 35°59' E 140°46'0 0.0
2016-May-20 20:25N 35°59' E 140°46'0 0.0
2016-May-20 19:19N 35°59' E 140°46'0 0.1
2016-May-20 18:31N 35°59' E 140°46'0 0.0
2016-May-20 17:13N 35°59' E 140°46'0 0.0
2016-May-20 15:13N 35°59' E 140°46'0 0.0
2016-May-20 14:31N 35°59' E 140°46'0 0.0
2016-May-20 13:10N 35°59' E 140°46'0 0.0
2016-May-20 08:13N 35°59' E 140°46'0 0.0
2016-May-20 07:19N 35°59' E 140°46'0 0.0
2016-May-20 06:19N 35°59' E 140°46'1 0.8
2016-May-20 05:33N 35°58' E 140°46'3110.1
2016-May-20 02:26N 35°27' E 140°47'1712.9
2016-May-20 01:05N 35°12' E 140°37'914.0
2016-May-20 00:28N 35°05' E 140°30'1613.8
2016-May-19 23:20N 34°57' E 140°13'1013.0
2016-May-19 22:32N 34°51' E 140°03'1212.7
2016-May-19 21:33N 34°45' E 139°50'  

Dump ship's entire track history